Time;durP1;ratioP1;P1;durP2;ratioP2;P2;SDS_P1;SDS_P2;PMS_P1;PMS_P2;Temp;Humidity;BMP_temperature;BMP_pressure;BME280_temperature;BME280_humidity;BME280_pressure;Samples;Min_cycle;Max_cycle;Signal;HPM_P1;HPM_P2
2022/12/09 00:02:23;;;;;;;2.63;2.42;;;;;;;;;;5017490;28;20249;-72
2022/12/09 00:04:50;;;;;;;2.40;2.20;;;;;;;;;;5017128;28;20206;-72
2022/12/09 00:07:18;;;;;;;2.40;2.20;;;;;;;;;;5017985;28;20213;-72
2022/12/09 00:09:46;;;;;;;2.20;2.00;;;;;;;;;;5017263;28;20210;-71
2022/12/09 00:12:14;;;;;;;2.20;2.00;;;;;;;;;;5017822;28;20210;-72
2022/12/09 00:14:42;;;;;;;2.55;2.10;;;;;;;;;;5017282;28;20333;-72
2022/12/09 00:17:09;;;;;;;2.30;2.10;;;;;;;;;;5017277;28;20581;-72
2022/12/09 00:19:39;;;;;;;2.40;2.20;;;;;;;;;;5017131;28;20214;-71
2022/12/09 00:22:06;;;;;;;2.30;2.10;;;;;;;;;;5017264;28;20210;-72
2022/12/09 00:24:34;;;;;;;1.98;1.88;;;;;;;;;;5017289;28;20244;-72
2022/12/09 00:27:02;;;;;;;2.03;1.92;;;;;;;;;;5017237;28;20238;-71
2022/12/09 00:29:29;;;;;;;2.40;2.20;;;;;;;;;;5017271;28;20206;-72
2022/12/09 00:31:58;;;;;;;2.15;1.95;;;;;;;;;;5016737;28;20301;-73
2022/12/09 00:34:26;;;;;;;2.17;1.98;;;;;;;;;;5017286;28;20230;-72
2022/12/09 00:36:55;;;;;;;1.92;1.83;;;;;;;;;;5017329;28;20547;-72
2022/12/09 00:39:22;;;;;;;2.13;2.00;;;;;;;;;;5018974;28;20210;-72
2022/12/09 00:41:51;;;;;;;1.83;1.73;;;;;;;;;;5020777;28;20300;-72
2022/12/09 00:44:19;;;;;;;2.17;1.98;;;;;;;;;;5020916;28;20226;-72
2022/12/09 00:46:46;;;;;;;2.13;1.92;;;;;;;;;;5020593;28;20224;-72
2022/12/09 00:49:14;;;;;;;1.90;1.80;;;;;;;;;;5020297;28;20561;-72
2022/12/09 00:51:42;;;;;;;1.80;1.70;;;;;;;;;;5021323;28;20210;-72
2022/12/09 00:54:11;;;;;;;1.90;1.80;;;;;;;;;;5020195;28;20236;-72
2022/12/09 00:56:39;;;;;;;2.05;1.85;;;;;;;;;;5020476;28;20479;-72
2022/12/09 00:59:07;;;;;;;2.05;1.90;;;;;;;;;;5020964;28;20242;-72
2022/12/09 01:01:35;;;;;;;1.80;1.70;;;;;;;;;;5020640;28;20207;-72
2022/12/09 01:04:02;;;;;;;1.70;1.60;;;;;;;;;;5020625;28;20596;-72
2022/12/09 01:06:30;;;;;;;1.80;1.70;;;;;;;;;;5020522;28;20483;-72
2022/12/09 01:08:58;;;;;;;1.90;1.70;;;;;;;;;;5020277;28;20237;-72
2022/12/09 01:11:28;;;;;;;1.83;1.52;;;;;;;;;;5020498;28;20206;-72
2022/12/09 01:13:59;;;;;;;2.00;1.80;;;;;;;;;;5020771;28;20512;-72
2022/12/09 01:16:28;;;;;;;1.77;1.60;;;;;;;;;;5020277;28;20214;-72
2022/12/09 01:18:58;;;;;;;1.60;1.50;;;;;;;;;;5020665;28;20214;-72
2022/12/09 01:21:26;;;;;;;1.60;1.50;;;;;;;;;;5020391;28;20605;-72
2022/12/09 01:23:53;;;;;;;1.55;1.45;;;;;;;;;;5020246;28;20467;-72
2022/12/09 01:26:21;;;;;;;1.70;1.60;;;;;;;;;;5020208;28;20628;-72
2022/12/09 01:28:51;;;;;;;1.67;1.38;;;;;;;;;;5020308;28;20301;-71
2022/12/09 01:31:20;;;;;;;1.80;1.70;;;;;;;;;;5020117;28;20210;-72
2022/12/09 01:33:48;;;;;;;1.70;1.60;;;;;;;;;;5019887;28;20210;-72
2022/12/09 01:36:17;;;;;;;1.70;1.60;;;;;;;;;;5020060;28;20508;-72
2022/12/09 01:38:45;;;;;;;1.80;1.70;;;;;;;;;;5019656;28;20206;-72
2022/12/09 01:41:13;;;;;;;1.80;1.70;;;;;;;;;;5003989;28;20227;-71
2022/12/09 01:43:41;;;;;;;1.77;1.50;;;;;;;;;;5019711;28;20206;-72
2022/12/09 01:46:10;;;;;;;1.45;1.35;;;;;;;;;;5019753;28;20207;-72
2022/12/09 01:48:39;;;;;;;1.83;1.73;;;;;;;;;;5019618;28;20306;-72
2022/12/09 01:51:10;;;;;;;1.50;1.40;;;;;;;;;;5018562;28;20213;-72
2022/12/09 01:53:39;;;;;;;2.13;1.67;;;;;;;;;;5019872;28;20211;-72
2022/12/09 01:56:09;;;;;;;1.60;1.50;;;;;;;;;;5019775;28;20231;-72
2022/12/09 01:58:37;;;;;;;1.50;1.40;;;;;;;;;;5019869;28;20354;-72
2022/12/09 02:01:05;;;;;;;1.70;1.60;;;;;;;;;;5019743;28;20215;-71
2022/12/09 02:03:34;;;;;;;1.73;1.63;;;;;;;;;;5019559;28;20257;-72
2022/12/09 02:06:02;;;;;;;1.42;1.33;;;;;;;;;;5019281;28;20221;-72
2022/12/09 02:08:30;;;;;;;1.60;1.50;;;;;;;;;;5019803;28;20289;-72
2022/12/09 02:11:03;;;;;;;1.45;1.35;;;;;;;;;;5019287;28;20265;-71
2022/12/09 02:13:33;;;;;;;1.40;1.30;;;;;;;;;;5019321;28;20284;-72
2022/12/09 02:16:03;;;;;;;1.40;1.30;;;;;;;;;;5019660;28;20307;-72
2022/12/09 02:18:37;;;;;;;1.50;1.40;;;;;;;;;;5019104;28;20249;-72
2022/12/09 02:21:09;;;;;;;1.60;1.50;;;;;;;;;;5019358;28;20232;-72
2022/12/09 02:23:40;;;;;;;1.63;1.52;;;;;;;;;;5019244;28;20206;-72
2022/12/09 02:26:12;;;;;;;1.50;1.40;;;;;;;;;;5019142;28;20208;-72
2022/12/09 02:28:53;;;;;;;1.33;1.23;;;;;;;;;;5019288;28;20609;-71
2022/12/09 02:31:25;;;;;;;1.48;1.38;;;;;;;;;;5019239;28;20221;-71
2022/12/09 02:34:08;;;;;;;1.50;1.40;;;;;;;;;;5018883;28;20199;-72
2022/12/09 02:36:37;;;;;;;1.52;1.42;;;;;;;;;;5019085;28;20276;-72
2022/12/09 02:39:05;;;;;;;1.58;1.48;;;;;;;;;;5019222;28;20206;-72
2022/12/09 02:41:33;;;;;;;1.70;1.60;;;;;;;;;;5018911;28;20217;-72
2022/12/09 02:44:03;;;;;;;1.52;1.42;;;;;;;;;;5019529;28;20257;-72
2022/12/09 02:46:32;;;;;;;1.70;1.60;;;;;;;;;;5018514;28;20598;-72
2022/12/09 02:49:00;;;;;;;1.80;1.70;;;;;;;;;;5018684;28;20590;-72
2022/12/09 02:51:31;;;;;;;1.70;1.60;;;;;;;;;;5019082;28;20529;-72
2022/12/09 02:54:03;;;;;;;1.38;1.27;;;;;;;;;;5018587;28;20207;-72
2022/12/09 02:56:31;;;;;;;1.55;1.45;;;;;;;;;;5018347;28;20262;-72
2022/12/09 02:58:59;;;;;;;1.70;1.60;;;;;;;;;;5018535;28;20213;-72
2022/12/09 03:01:33;;;;;;;1.60;1.50;;;;;;;;;;5017714;28;20216;-71
2022/12/09 03:04:01;;;;;;;1.50;1.40;;;;;;;;;;5018040;28;20213;-72
2022/12/09 03:06:35;;;;;;;1.45;1.35;;;;;;;;;;5018106;28;20233;-71
2022/12/09 03:09:08;;;;;;;1.60;1.50;;;;;;;;;;5018265;28;20205;-71
2022/12/09 03:11:37;;;;;;;1.50;1.40;;;;;;;;;;5018414;28;20210;-72
2022/12/09 03:14:07;;;;;;;1.60;1.50;;;;;;;;;;5018210;28;20652;-72
2022/12/09 03:16:36;;;;;;;1.55;1.45;;;;;;;;;;5017997;28;20665;-71
2022/12/09 03:19:06;;;;;;;1.40;1.30;;;;;;;;;;5018250;28;20542;-72
2022/12/09 03:21:36;;;;;;;1.60;1.50;;;;;;;;;;5018201;28;20213;-71
2022/12/09 03:24:05;;;;;;;1.48;1.38;;;;;;;;;;5018063;28;20206;-72
2022/12/09 03:26:33;;;;;;;1.70;1.60;;;;;;;;;;5018052;28;20206;-72
2022/12/09 03:29:03;;;;;;;1.50;1.40;;;;;;;;;;5018374;28;20293;-71
2022/12/09 03:31:31;;;;;;;1.83;1.38;;;;;;;;;;5017775;28;20272;-72
2022/12/09 03:34:03;;;;;;;1.73;1.63;;;;;;;;;;5018052;28;20213;-72
2022/12/09 03:36:34;;;;;;;1.42;1.33;;;;;;;;;;5018084;28;20635;-72
2022/12/09 03:39:03;;;;;;;1.67;1.40;;;;;;;;;;5018003;28;20206;-72
2022/12/09 03:41:33;;;;;;;1.50;1.40;;;;;;;;;;5017775;28;20582;-72
2022/12/09 03:44:04;;;;;;;1.70;1.60;;;;;;;;;;5017807;28;20217;-71
2022/12/09 03:46:32;;;;;;;1.60;1.50;;;;;;;;;;5017848;28;20205;-72
2022/12/09 03:49:00;;;;;;;1.40;1.30;;;;;;;;;;5017887;28;20213;-72
2022/12/09 03:51:31;;;;;;;1.48;1.38;;;;;;;;;;5017733;28;20214;-72
2022/12/09 03:54:01;;;;;;;1.48;1.38;;;;;;;;;;5018225;28;20289;-72
2022/12/09 03:56:33;;;;;;;1.60;1.50;;;;;;;;;;5018189;28;20480;-72
2022/12/09 03:59:02;;;;;;;1.40;1.30;;;;;;;;;;5017486;28;20211;-72
2022/12/09 04:01:31;;;;;;;1.60;1.50;;;;;;;;;;5017868;28;20206;-72
2022/12/09 04:03:58;;;;;;;1.55;1.45;;;;;;;;;;5017569;28;20217;-71
2022/12/09 04:06:27;;;;;;;1.73;1.50;;;;;;;;;;5017573;28;20500;-71
2022/12/09 04:08:55;;;;;;;1.60;1.50;;;;;;;;;;5017429;28;20300;-72
2022/12/09 04:11:22;;;;;;;1.55;1.45;;;;;;;;;;5016977;28;20598;-72
2022/12/09 04:13:51;;;;;;;1.58;1.48;;;;;;;;;;5018623;28;20237;-72
2022/12/09 04:16:19;;;;;;;1.50;1.40;;;;;;;;;;5021262;28;20968;-72
2022/12/09 04:18:46;;;;;;;1.60;1.50;;;;;;;;;;5020927;28;20206;-72
2022/12/09 04:21:14;;;;;;;1.40;1.30;;;;;;;;;;5021252;28;20301;-71
2022/12/09 04:23:42;;;;;;;1.50;1.40;;;;;;;;;;5021256;28;20301;-71
2022/12/09 04:26:13;;;;;;;1.50;1.40;;;;;;;;;;5021137;28;20246;-72
2022/12/09 04:28:41;;;;;;;1.60;1.50;;;;;;;;;;5020772;28;20305;-71
2022/12/09 04:31:12;;;;;;;1.42;1.33;;;;;;;;;;5021182;28;20206;-71
2022/12/09 04:33:40;;;;;;;1.70;1.60;;;;;;;;;;5021197;28;20206;-71
2022/12/09 04:36:09;;;;;;;1.80;1.70;;;;;;;;;;5021003;28;20222;-72
2022/12/09 04:38:37;;;;;;;3.22;2.17;;;;;;;;;;5020654;28;20605;-71
2022/12/09 04:41:05;;;;;;;2.30;2.10;;;;;;;;;;5019384;28;20570;-72
2022/12/09 04:43:33;;;;;;;2.40;2.20;;;;;;;;;;5019646;28;20214;-72
2022/12/09 04:46:01;;;;;;;2.38;2.17;;;;;;;;;;5021126;28;20202;-72
2022/12/09 04:48:30;;;;;;;2.47;1.95;;;;;;;;;;5020555;28;20206;-72
2022/12/09 04:50:58;;;;;;;2.35;2.15;;;;;;;;;;5020330;28;20232;-72
2022/12/09 04:53:26;;;;;;;2.25;1.98;;;;;;;;;;5020601;28;20213;-71
2022/12/09 04:55:59;;;;;;;2.20;2.00;;;;;;;;;;5020311;28;20241;-71
2022/12/09 04:58:27;;;;;;;2.13;1.90;;;;;;;;;;5020420;28;20212;-72
2022/12/09 05:00:55;;;;;;;2.10;1.90;;;;;;;;;;5020591;28;20214;-72
2022/12/09 05:03:22;;;;;;;1.95;1.80;;;;;;;;;;5020481;28;20785;-72
2022/12/09 05:05:51;;;;;;;2.47;2.20;;;;;;;;;;5020020;28;20310;-72
2022/12/09 05:08:19;;;;;;;2.25;1.95;;;;;;;;;;5020251;28;20249;-72
2022/12/09 05:10:48;;;;;;;2.28;1.95;;;;;;;;;;5020146;28;20268;-71
2022/12/09 05:13:16;;;;;;;1.98;1.85;;;;;;;;;;5020022;28;20206;-72
2022/12/09 05:15:43;;;;;;;2.35;2.15;;;;;;;;;;5038408;28;20343;-71
2022/12/09 05:18:10;;;;;;;2.38;2.17;;;;;;;;;;5039713;28;20271;-71
2022/12/09 05:20:39;;;;;;;1.80;1.70;;;;;;;;;;5039403;28;20296;-72
2022/12/09 05:23:08;;;;;;;2.17;1.98;;;;;;;;;;5039681;28;20247;-71
2022/12/09 05:25:36;;;;;;;1.80;1.70;;;;;;;;;;5031326;28;20209;-72
2022/12/09 05:28:03;;;;;;;1.98;1.85;;;;;;;;;;5039034;28;20552;-72
2022/12/09 05:30:30;;;;;;;1.70;1.60;;;;;;;;;;5039355;28;20794;-71
2022/12/09 05:32:58;;;;;;;2.17;1.98;;;;;;;;;;5039298;28;20527;-72
2022/12/09 05:35:25;;;;;;;2.10;1.90;;;;;;;;;;5038799;28;20205;-72
2022/12/09 05:37:53;;;;;;;1.80;1.70;;;;;;;;;;5038643;28;20230;-71
2022/12/09 05:40:22;;;;;;;1.90;1.80;;;;;;;;;;5038843;28;20205;-71
2022/12/09 05:42:49;;;;;;;2.03;1.90;;;;;;;;;;5038415;28;20296;-72
2022/12/09 05:45:16;;;;;;;1.88;1.77;;;;;;;;;;5038033;28;20205;-72
2022/12/09 05:47:44;;;;;;;2.03;1.83;;;;;;;;;;5038512;28;20291;-71
2022/12/09 05:50:12;;;;;;;2.00;1.90;;;;;;;;;;5038055;28;20211;-71
2022/12/09 05:52:39;;;;;;;2.13;1.90;;;;;;;;;;5038805;28;20216;-72
2022/12/09 05:55:07;;;;;;;1.83;1.73;;;;;;;;;;5038259;28;20647;-71
2022/12/09 05:57:36;;;;;;;2.03;1.83;;;;;;;;;;5037862;28;20609;-71
2022/12/09 06:00:05;;;;;;;2.08;1.95;;;;;;;;;;5037498;28;20688;-71
2022/12/09 06:02:32;;;;;;;1.80;1.70;;;;;;;;;;5037241;28;20286;-72
2022/12/09 06:05:00;;;;;;;2.10;1.90;;;;;;;;;;5037199;28;20216;-72
2022/12/09 06:07:27;;;;;;;1.60;1.50;;;;;;;;;;5036454;28;20492;-71
2022/12/09 06:09:54;;;;;;;1.70;1.60;;;;;;;;;;5037448;28;20308;-71
2022/12/09 06:12:22;;;;;;;2.10;2.00;;;;;;;;;;5036840;28;20201;-72
2022/12/09 06:14:51;;;;;;;1.80;1.70;;;;;;;;;;5036570;28;20249;-72
2022/12/09 06:17:18;;;;;;;1.80;1.70;;;;;;;;;;5036604;28;20251;-72
2022/12/09 06:19:46;;;;;;;1.80;1.70;;;;;;;;;;5036511;28;20654;-72
2022/12/09 06:22:13;;;;;;;2.10;1.90;;;;;;;;;;5036377;28;20605;-72
2022/12/09 06:24:40;;;;;;;1.73;1.63;;;;;;;;;;5037171;28;20205;-71
2022/12/09 06:27:08;;;;;;;1.70;1.60;;;;;;;;;;5036813;28;20210;-72
2022/12/09 06:29:36;;;;;;;1.70;1.60;;;;;;;;;;5036014;28;20662;-71
2022/12/09 06:32:05;;;;;;;1.70;1.60;;;;;;;;;;5035892;28;20296;-72
2022/12/09 06:34:32;;;;;;;2.13;1.92;;;;;;;;;;5035766;28;20205;-71
2022/12/09 06:37:00;;;;;;;1.90;1.80;;;;;;;;;;5035253;28;20230;-71
2022/12/09 06:39:27;;;;;;;3.58;3.28;;;;;;;;;;5036619;28;20206;-72
2022/12/09 06:41:54;;;;;;;4.07;3.67;;;;;;;;;;5036027;28;20543;-71
2022/12/09 06:44:22;;;;;;;4.25;3.85;;;;;;;;;;5036205;28;20215;-72
2022/12/09 06:46:49;;;;;;;3.92;3.30;;;;;;;;;;5035891;28;20205;-71
2022/12/09 06:49:18;;;;;;;4.03;3.45;;;;;;;;;;5034467;28;20311;-72
2022/12/09 06:51:45;;;;;;;3.72;3.22;;;;;;;;;;5035934;28;20212;-71
2022/12/09 06:54:13;;;;;;;4.00;3.45;;;;;;;;;;5035721;28;20198;-71
2022/12/09 06:56:41;;;;;;;3.83;3.42;;;;;;;;;;5036218;28;20558;-72
2022/12/09 06:59:09;;;;;;;3.35;3.05;;;;;;;;;;5035097;28;20386;-72
2022/12/09 07:01:36;;;;;;;3.97;3.47;;;;;;;;;;5035747;28;20208;-71
2022/12/09 07:04:04;;;;;;;3.75;3.35;;;;;;;;;;5036284;28;20206;-72
2022/12/09 07:06:34;;;;;;;3.15;2.95;;;;;;;;;;5035207;28;20316;-71
2022/12/09 07:09:03;;;;;;;3.92;3.13;;;;;;;;;;5035216;28;20300;-71
2022/12/09 07:11:30;;;;;;;4.07;3.15;;;;;;;;;;5035890;28;20201;-72
2022/12/09 07:13:57;;;;;;;3.97;3.05;;;;;;;;;;5035780;28;20649;-72
2022/12/09 07:16:25;;;;;;;3.80;3.10;;;;;;;;;;5035776;28;20229;-71
2022/12/09 07:18:52;;;;;;;3.00;2.70;;;;;;;;;;5035485;28;20623;-72
2022/12/09 07:21:20;;;;;;;3.67;3.20;;;;;;;;;;5035889;28;20220;-72
2022/12/09 07:23:49;;;;;;;3.47;3.05;;;;;;;;;;5035649;28;20212;-72
2022/12/09 07:26:17;;;;;;;3.70;3.10;;;;;;;;;;5035644;28;20293;-71
2022/12/09 07:28:46;;;;;;;3.13;2.83;;;;;;;;;;5036109;28;20324;-72
2022/12/09 07:31:20;;;;;;;3.10;2.80;;;;;;;;;;5036030;28;20205;-71
2022/12/09 07:33:47;;;;;;;3.20;2.90;;;;;;;;;;5035876;28;20295;-72
2022/12/09 07:36:15;;;;;;;2.70;2.50;;;;;;;;;;5035675;28;20221;-72
2022/12/09 07:38:43;;;;;;;3.00;2.70;;;;;;;;;;5035641;28;20301;-72
2022/12/09 07:41:16;;;;;;;4.05;2.90;;;;;;;;;;5035841;28;20220;-72
2022/12/09 07:43:44;;;;;;;3.72;2.85;;;;;;;;;;5035203;28;20734;-71
2022/12/09 07:46:13;;;;;;;3.08;2.35;;;;;;;;;;5035381;28;20198;-72
2022/12/09 07:48:40;;;;;;;2.92;2.70;;;;;;;;;;5035117;28;20205;-72
2022/12/09 07:51:08;;;;;;;2.95;2.70;;;;;;;;;;5035781;28;20205;-72
2022/12/09 07:53:36;;;;;;;2.95;2.65;;;;;;;;;;5035341;28;20215;-72
2022/12/09 07:56:05;;;;;;;3.00;2.65;;;;;;;;;;5034827;28;20750;-71
2022/12/09 07:58:34;;;;;;;3.30;2.95;;;;;;;;;;5034684;28;20213;-72
2022/12/09 08:01:05;;;;;;;3.15;2.65;;;;;;;;;;5034641;28;20241;-72
2022/12/09 08:03:32;;;;;;;3.47;2.47;;;;;;;;;;5034763;28;20632;-71
2022/12/09 08:06:00;;;;;;;2.97;2.67;;;;;;;;;;5035407;28;20213;-71
2022/12/09 08:08:27;;;;;;;2.83;2.55;;;;;;;;;;5035654;28;20304;-71
2022/12/09 08:10:55;;;;;;;2.97;2.67;;;;;;;;;;5035032;28;20307;-71
2022/12/09 08:13:22;;;;;;;2.53;2.33;;;;;;;;;;5035500;28;20197;-71
2022/12/09 08:15:51;;;;;;;2.80;2.60;;;;;;;;;;5033897;28;20329;-72
2022/12/09 08:18:19;;;;;;;3.25;2.83;;;;;;;;;;5034349;28;20225;-72
2022/12/09 08:20:46;;;;;;;2.90;2.58;;;;;;;;;;5034746;28;20201;-72
2022/12/09 08:23:13;;;;;;;2.80;2.50;;;;;;;;;;5034141;28;20205;-72
2022/12/09 08:25:41;;;;;;;2.65;2.45;;;;;;;;;;5035273;28;20205;-72
2022/12/09 08:28:09;;;;;;;2.92;2.65;;;;;;;;;;5034472;28;20211;-71
2022/12/09 08:30:36;;;;;;;3.47;2.50;;;;;;;;;;5034914;28;20197;-72
2022/12/09 08:33:05;;;;;;;2.80;2.60;;;;;;;;;;5034402;28;20212;-72
2022/12/09 08:35:33;;;;;;;2.67;2.47;;;;;;;;;;5033790;28;20411;-72
2022/12/09 08:38:00;;;;;;;2.60;2.40;;;;;;;;;;5034464;28;20233;-71
2022/12/09 08:40:28;;;;;;;3.17;2.38;;;;;;;;;;5034630;28;20201;-71
2022/12/09 08:42:55;;;;;;;2.95;2.30;;;;;;;;;;5034350;28;20220;-71
2022/12/09 08:45:23;;;;;;;3.08;2.45;;;;;;;;;;5034848;28;20589;-72
2022/12/09 08:47:51;;;;;;;2.67;2.47;;;;;;;;;;5034661;28;20278;-71
2022/12/09 08:50:20;;;;;;;2.67;2.47;;;;;;;;;;5034206;28;20205;-71
2022/12/09 08:52:47;;;;;;;3.30;2.70;;;;;;;;;;5033989;28;20304;-72
2022/12/09 08:55:14;;;;;;;2.50;2.22;;;;;;;;;;5034185;28;20208;-72
2022/12/09 08:57:42;;;;;;;2.63;2.30;;;;;;;;;;5033687;28;20226;-71
2022/12/09 09:00:10;;;;;;;2.80;2.60;;;;;;;;;;5035368;28;20289;-71
2022/12/09 09:02:37;;;;;;;3.15;2.40;;;;;;;;;;5037671;28;20300;-72
2022/12/09 09:05:05;;;;;;;2.47;2.28;;;;;;;;;;5036900;28;20197;-71
2022/12/09 09:07:34;;;;;;;3.00;2.72;;;;;;;;;;5037351;28;20204;-71
2022/12/09 09:10:02;;;;;;;2.42;2.22;;;;;;;;;;5037938;28;20698;-72
2022/12/09 09:12:29;;;;;;;2.60;2.40;;;;;;;;;;5037506;28;20581;-71
2022/12/09 09:14:57;;;;;;;2.50;2.30;;;;;;;;;;5037690;28;20241;-71
2022/12/09 09:17:24;;;;;;;2.50;2.30;;;;;;;;;;5038039;28;20320;-72
2022/12/09 09:19:51;;;;;;;2.80;2.60;;;;;;;;;;5038076;28;20212;-72
2022/12/09 09:22:19;;;;;;;2.45;2.25;;;;;;;;;;5036527;28;20290;-71
2022/12/09 09:24:48;;;;;;;2.65;2.45;;;;;;;;;;5037839;28;20205;-71
2022/12/09 09:27:16;;;;;;;2.80;2.60;;;;;;;;;;5037282;28;20232;-71
2022/12/09 09:29:43;;;;;;;2.97;2.78;;;;;;;;;;5037537;28;20554;-71
2022/12/09 09:32:11;;;;;;;3.28;2.35;;;;;;;;;;5037515;28;20213;-72
2022/12/09 09:34:38;;;;;;;2.55;2.35;;;;;;;;;;5037042;28;20208;-71
2022/12/09 09:37:06;;;;;;;3.35;2.53;;;;;;;;;;5038130;28;20499;-71
2022/12/09 09:39:33;;;;;;;3.05;2.75;;;;;;;;;;5036560;28;20316;-71
2022/12/09 09:42:04;;;;;;;2.90;2.60;;;;;;;;;;5036682;28;20304;-72
2022/12/09 09:44:33;;;;;;;2.42;2.22;;;;;;;;;;5036740;28;20206;-72
2022/12/09 09:47:01;;;;;;;2.40;2.20;;;;;;;;;;5037661;28;20296;-71
2022/12/09 09:49:33;;;;;;;2.63;2.42;;;;;;;;;;5037012;28;20292;-71
2022/12/09 09:52:04;;;;;;;2.88;2.67;;;;;;;;;;5036238;28;20212;-71
2022/12/09 09:54:32;;;;;;;3.17;2.85;;;;;;;;;;5036405;28;20206;-71
2022/12/09 09:57:04;;;;;;;3.03;2.75;;;;;;;;;;5037351;28;20221;-69
2022/12/09 09:59:37;;;;;;;4.47;3.03;;;;;;;;;;5036838;28;20577;-69
2022/12/09 10:02:13;;;;;;;3.35;3.03;;;;;;;;;;5037005;28;20201;-69
2022/12/09 10:04:45;;;;;;;2.90;2.70;;;;;;;;;;5035549;28;20205;-69
2022/12/09 10:07:16;;;;;;;3.40;3.08;;;;;;;;;;5037359;28;20600;-69
2022/12/09 10:09:47;;;;;;;5.20;3.20;;;;;;;;;;5036701;28;20205;-69
2022/12/09 10:12:20;;;;;;;5.88;4.30;;;;;;;;;;5035164;28;20212;-68
2022/12/09 10:14:53;;;;;;;5.63;3.83;;;;;;;;;;5037191;28;20578;-69
2022/12/09 10:17:24;;;;;;;4.68;4.00;;;;;;;;;;5036172;28;20327;-69
2022/12/09 10:19:53;;;;;;;4.40;4.00;;;;;;;;;;5035825;28;20308;-69
2022/12/09 10:22:22;;;;;;;4.45;4.00;;;;;;;;;;5035335;28;20201;-69
2022/12/09 10:24:51;;;;;;;3.92;3.63;;;;;;;;;;5036501;28;20202;-69
2022/12/09 10:27:28;;;;;;;4.13;3.70;;;;;;;;;;5035775;28;20486;-69
2022/12/09 10:29:56;;;;;;;4.40;3.80;;;;;;;;;;5036536;28;20201;-69
2022/12/09 10:32:26;;;;;;;5.00;4.10;;;;;;;;;;5035582;28;20209;-69
2022/12/09 10:34:53;;;;;;;4.07;3.67;;;;;;;;;;5035326;28;20589;-69
2022/12/09 10:37:32;;;;;;;4.28;3.88;;;;;;;;;;5034742;28;20232;-69
2022/12/09 10:40:05;;;;;;;5.20;4.20;;;;;;;;;;5035190;28;20301;-69
2022/12/09 10:45:20;;;;;;;4.03;3.65;;;;;;;;;;5034678;28;20331;-69
2022/12/09 10:47:51;;;;;;;4.30;3.90;;;;;;;;;;5035571;28;20504;-69
2022/12/09 10:50:27;;;;;;;4.68;4.28;;;;;;;;;;5034610;28;20213;-69
2022/12/09 10:52:54;;;;;;;4.38;3.97;;;;;;;;;;5035287;28;20311;-69
2022/12/09 10:55:23;;;;;;;4.97;3.60;;;;;;;;;;5035267;28;20205;-69
2022/12/09 10:57:52;;;;;;;4.13;3.67;;;;;;;;;;5034383;28;20221;-69
2022/12/09 11:00:21;;;;;;;4.65;4.25;;;;;;;;;;5034386;28;20208;-69
2022/12/09 11:02:50;;;;;;;4.70;4.30;;;;;;;;;;5034960;28;20216;-68
2022/12/09 11:05:22;;;;;;;5.35;4.80;;;;;;;;;;5035183;28;20202;-69
2022/12/09 11:07:49;;;;;;;4.65;4.07;;;;;;;;;;5034402;28;20205;-69
2022/12/09 11:10:17;;;;;;;5.00;4.47;;;;;;;;;;5035240;28;20244;-69
2022/12/09 11:12:45;;;;;;;4.75;4.35;;;;;;;;;;5035307;28;20304;-69
2022/12/09 11:15:25;;;;;;;5.40;4.90;;;;;;;;;;5035071;28;20759;-68
2022/12/09 11:17:56;;;;;;;5.05;4.40;;;;;;;;;;5035046;28;20324;-69
2022/12/09 11:20:25;;;;;;;5.65;4.88;;;;;;;;;;5034486;28;20595;-69
2022/12/09 11:22:59;;;;;;;4.82;4.43;;;;;;;;;;5034399;28;20197;-69
2022/12/09 11:25:27;;;;;;;5.03;4.25;;;;;;;;;;5034772;28;20307;-69
2022/12/09 11:27:58;;;;;;;4.97;4.47;;;;;;;;;;5033750;28;20247;-68
2022/12/09 11:30:28;;;;;;;4.70;4.30;;;;;;;;;;5033666;28;20206;-69
2022/12/09 11:32:57;;;;;;;4.63;4.13;;;;;;;;;;5033585;28;20216;-69
2022/12/09 11:35:27;;;;;;;5.70;4.55;;;;;;;;;;5033223;28;20224;-69
2022/12/09 11:37:55;;;;;;;4.90;4.50;;;;;;;;;;5033262;28;20232;-69
2022/12/09 11:40:25;;;;;;;5.18;4.15;;;;;;;;;;5033323;28;20204;-69
2022/12/09 11:42:53;;;;;;;4.60;4.20;;;;;;;;;;5033628;28;20205;-69
2022/12/09 11:45:24;;;;;;;4.75;4.35;;;;;;;;;;5034319;28;20229;-69
2022/12/09 11:48:01;;;;;;;4.78;4.22;;;;;;;;;;5032901;28;20627;-69
2022/12/09 11:50:31;;;;;;;4.90;4.40;;;;;;;;;;5033246;28;20486;-69
2022/12/09 11:53:06;;;;;;;5.88;4.22;;;;;;;;;;5034240;28;20206;-69
2022/12/09 11:55:35;;;;;;;4.60;4.20;;;;;;;;;;5033969;28;20292;-69
2022/12/09 11:58:05;;;;;;;5.03;4.57;;;;;;;;;;5034235;28;20688;-69
2022/12/09 12:00:36;;;;;;;4.95;4.55;;;;;;;;;;5034838;28;20215;-69
2022/12/09 12:05:34;;;;;;;5.43;4.40;;;;;;;;;;5528636;22;20247;-69
2022/12/09 12:08:07;;;;;;;4.63;4.22;;;;;;;;;;5072638;28;20196;-69
2022/12/09 12:10:36;;;;;;;4.70;4.30;;;;;;;;;;5065589;28;20583;-69
2022/12/09 12:13:09;;;;;;;4.70;4.30;;;;;;;;;;5073638;28;20706;-69
2022/12/09 12:15:41;;;;;;;4.57;4.18;;;;;;;;;;5073081;28;20778;-70
2022/12/09 12:18:13;;;;;;;4.30;3.90;;;;;;;;;;5073459;28;20542;-69
2022/12/09 12:20:46;;;;;;;4.60;4.20;;;;;;;;;;5073618;28;20215;-69
2022/12/09 12:23:23;;;;;;;5.00;4.28;;;;;;;;;;5073617;28;20204;-69
2022/12/09 12:25:55;;;;;;;4.80;4.30;;;;;;;;;;5073421;28;20214;-69
2022/12/09 12:28:36;;;;;;;5.22;4.80;;;;;;;;;;5074029;28;20196;-69
2022/12/09 12:31:09;;;;;;;4.80;4.30;;;;;;;;;;5072891;28;20307;-69
2022/12/09 12:33:42;;;;;;;4.50;4.10;;;;;;;;;;5073152;28;20210;-69
2022/12/09 12:36:13;;;;;;;4.65;4.18;;;;;;;;;;5077399;28;20306;-69
2022/12/09 12:38:48;;;;;;;4.38;3.97;;;;;;;;;;5077328;28;20234;-69
2022/12/09 12:41:22;;;;;;;4.10;3.70;;;;;;;;;;5077899;28;20303;-69
2022/12/09 12:46:47;;;;;;;4.50;4.10;;;;;;;;;;5076783;28;20277;-69
2022/12/09 12:49:26;;;;;;;4.13;3.78;;;;;;;;;;5076854;28;20402;-69
2022/12/09 12:52:01;;;;;;;4.57;4.18;;;;;;;;;;5075578;28;20310;-69
2022/12/09 12:54:35;;;;;;;4.38;4.00;;;;;;;;;;5067449;28;20302;-69
2022/12/09 12:57:06;;;;;;;4.18;3.78;;;;;;;;;;5076177;28;20294;-69
2022/12/09 12:59:38;;;;;;;4.03;3.72;;;;;;;;;;5068953;28;20255;-69
2022/12/09 13:02:15;;;;;;;4.20;3.80;;;;;;;;;;5076271;28;20358;-69
2022/12/09 13:04:48;;;;;;;4.00;3.70;;;;;;;;;;5076387;28;20323;-69
2022/12/09 13:07:24;;;;;;;4.20;3.90;;;;;;;;;;5075668;28;20196;-69
2022/12/09 13:09:53;;;;;;;4.65;4.25;;;;;;;;;;5076618;28;20265;-70
2022/12/09 13:12:52;;;;;;;3.75;3.45;;;;;;;;;;5076513;28;20200;-70
2022/12/09 13:15:13;;;;;;;3.90;3.60;;;;;;;;;;5076260;28;20207;-69
2022/12/09 13:17:41;;;;;;;3.75;3.47;;;;;;;;;;5076303;28;20614;-70
2022/12/09 13:20:14;;;;;;;3.90;3.50;;;;;;;;;;5076736;28;20201;-69
2022/12/09 13:22:46;;;;;;;3.90;3.60;;;;;;;;;;5077095;28;20602;-69
2022/12/09 13:25:28;;;;;;;4.50;4.10;;;;;;;;;;5075841;28;20266;-69
2022/12/09 13:27:59;;;;;;;4.00;3.60;;;;;;;;;;5076061;28;20200;-69
2022/12/09 13:30:32;;;;;;;3.88;3.58;;;;;;;;;;5076331;28;20209;-69
2022/12/09 13:33:07;;;;;;;3.50;3.20;;;;;;;;;;5075201;28;20663;-69
2022/12/09 13:35:37;;;;;;;3.90;3.60;;;;;;;;;;5075911;28;20235;-69
2022/12/09 13:38:19;;;;;;;3.92;3.63;;;;;;;;;;5076218;28;20224;-70
2022/12/09 13:40:48;;;;;;;3.97;3.67;;;;;;;;;;5075916;28;20219;-70
2022/12/09 13:43:23;;;;;;;3.78;3.47;;;;;;;;;;5075813;28;20208;-70
2022/12/09 13:45:52;;;;;;;3.97;3.67;;;;;;;;;;5075313;28;20204;-70
2022/12/09 13:48:40;;;;;;;3.75;3.40;;;;;;;;;;5076613;28;20196;-69
2022/12/09 13:51:08;;;;;;;4.20;3.90;;;;;;;;;;5076504;28;20473;-69
2022/12/09 13:53:39;;;;;;;3.40;3.10;;;;;;;;;;5076058;28;20206;-69
2022/12/09 13:56:09;;;;;;;3.80;3.50;;;;;;;;;;5075809;28;20214;-69
2022/12/09 13:58:47;;;;;;;3.70;3.40;;;;;;;;;;5075592;28;20243;-69
2022/12/09 14:01:20;;;;;;;3.72;3.42;;;;;;;;;;5075443;28;20696;-69
2022/12/09 14:03:51;;;;;;;3.13;2.92;;;;;;;;;;5075551;28;20556;-69
2022/12/09 14:06:20;;;;;;;3.50;3.20;;;;;;;;;;5075475;28;20236;-69
2022/12/09 14:08:49;;;;;;;3.38;3.08;;;;;;;;;;5075383;28;20200;-70
2022/12/09 14:11:47;;;;;;;3.47;3.17;;;;;;;;;;5074288;28;20299;-69
2022/12/09 14:14:29;;;;;;;3.47;3.22;;;;;;;;;;4974322;28;20273;-69
2022/12/09 14:16:58;;;;;;;3.50;3.20;;;;;;;;;;5061582;28;20208;-69
2022/12/09 14:19:45;;;;;;;3.55;3.25;;;;;;;;;;5074837;28;20718;-69
2022/12/09 14:22:43;;;;;;;3.53;3.22;;;;;;;;;;5075594;28;20257;-69
2022/12/09 14:25:32;;;;;;;3.58;3.28;;;;;;;;;;4993588;28;20203;-69
2022/12/09 14:28:15;;;;;;;3.53;3.22;;;;;;;;;;5066390;28;20230;-69
2022/12/09 14:30:49;;;;;;;3.55;3.30;;;;;;;;;;5073082;28;20246;-69
2022/12/09 14:33:23;;;;;;;3.28;2.97;;;;;;;;;;5074915;28;20210;-69
2022/12/09 14:35:52;;;;;;;3.53;3.22;;;;;;;;;;5074437;28;20214;-69
2022/12/09 14:38:23;;;;;;;3.60;3.30;;;;;;;;;;5074487;28;20240;-69
2022/12/09 14:41:00;;;;;;;3.75;3.45;;;;;;;;;;5075143;28;20445;-69
2022/12/09 14:43:48;;;;;;;3.60;3.30;;;;;;;;;;5074517;28;20303;-69
2022/12/09 14:46:23;;;;;;;3.47;3.25;;;;;;;;;;5075096;28;20200;-69
2022/12/09 14:48:55;;;;;;;3.42;3.13;;;;;;;;;;5074158;28;20683;-69
2022/12/09 14:51:24;;;;;;;3.35;3.05;;;;;;;;;;5074427;28;20684;-69
2022/12/09 14:53:55;;;;;;;3.40;3.10;;;;;;;;;;5074015;28;20239;-69
2022/12/09 14:56:24;;;;;;;3.40;3.10;;;;;;;;;;5074312;28;20299;-69
2022/12/09 14:58:53;;;;;;;3.70;3.40;;;;;;;;;;5072806;28;20226;-69
2022/12/09 15:01:21;;;;;;;3.17;2.88;;;;;;;;;;5073260;28;20197;-69
2022/12/09 15:03:54;;;;;;;3.50;3.20;;;;;;;;;;5073966;28;20200;-69
2022/12/09 15:06:25;;;;;;;3.22;2.92;;;;;;;;;;5074114;28;20236;-69
2022/12/09 15:08:54;;;;;;;3.20;3.00;;;;;;;;;;5074256;28;20208;-69